sensor_id;sensor_type;location;lat;lon;timestamp;temperature;humidity
76996;DHT22;65929;49.062;10.338;2024-02-26T00:00:58;3.60;81.90
76996;DHT22;65929;49.062;10.338;2024-02-26T00:01:59;3.70;81.80
76996;DHT22;65929;49.062;10.338;2024-02-26T00:03:00;3.70;81.60
76996;DHT22;65929;49.062;10.338;2024-02-26T00:04:00;3.70;81.50
76996;DHT22;65929;49.062;10.338;2024-02-26T00:05:04;3.70;81.50
76996;DHT22;65929;49.062;10.338;2024-02-26T00:06:05;3.70;81.50
76996;DHT22;65929;49.062;10.338;2024-02-26T00:07:06;3.70;81.40
76996;DHT22;65929;49.062;10.338;2024-02-26T00:08:07;3.70;81.40
76996;DHT22;65929;49.062;10.338;2024-02-26T00:09:08;3.70;81.40
76996;DHT22;65929;49.062;10.338;2024-02-26T00:10:11;3.70;81.30
76996;DHT22;65929;49.062;10.338;2024-02-26T00:11:12;3.70;81.30
76996;DHT22;65929;49.062;10.338;2024-02-26T00:12:13;3.70;81.20
76996;DHT22;65929;49.062;10.338;2024-02-26T00:13:14;3.70;81.30
76996;DHT22;65929;49.062;10.338;2024-02-26T00:14:15;3.70;81.30
76996;DHT22;65929;49.062;10.338;2024-02-26T00:15:16;3.70;81.20
76996;DHT22;65929;49.062;10.338;2024-02-26T00:16:17;3.70;81.10
76996;DHT22;65929;49.062;10.338;2024-02-26T00:17:17;3.70;81.10
76996;DHT22;65929;49.062;10.338;2024-02-26T00:18:18;3.70;81.10
76996;DHT22;65929;49.062;10.338;2024-02-26T00:19:19;3.70;81.10
76996;DHT22;65929;49.062;10.338;2024-02-26T00:20:20;3.70;81.00
76996;DHT22;65929;49.062;10.338;2024-02-26T00:21:21;3.70;81.00
76996;DHT22;65929;49.062;10.338;2024-02-26T00:22:22;3.70;81.00
76996;DHT22;65929;49.062;10.338;2024-02-26T00:23:23;3.70;80.90
76996;DHT22;65929;49.062;10.338;2024-02-26T00:24:25;3.70;80.90
76996;DHT22;65929;49.062;10.338;2024-02-26T00:25:27;3.70;80.80
76996;DHT22;65929;49.062;10.338;2024-02-26T00:26:28;3.70;80.70
76996;DHT22;65929;49.062;10.338;2024-02-26T00:27:29;3.70;80.70
76996;DHT22;65929;49.062;10.338;2024-02-26T00:28:30;3.60;80.70
76996;DHT22;65929;49.062;10.338;2024-02-26T00:29:31;3.60;80.80
76996;DHT22;65929;49.062;10.338;2024-02-26T00:30:33;3.60;80.80
76996;DHT22;65929;49.062;10.338;2024-02-26T00:31:34;3.60;81.00
76996;DHT22;65929;49.062;10.338;2024-02-26T00:32:34;3.50;81.10
76996;DHT22;65929;49.062;10.338;2024-02-26T00:33:35;3.50;81.10
76996;DHT22;65929;49.062;10.338;2024-02-26T00:34:36;3.50;81.10
76996;DHT22;65929;49.062;10.338;2024-02-26T00:35:37;3.50;81.10
76996;DHT22;65929;49.062;10.338;2024-02-26T00:36:38;3.50;81.30
76996;DHT22;65929;49.062;10.338;2024-02-26T00:37:39;3.50;81.30
76996;DHT22;65929;49.062;10.338;2024-02-26T00:38:40;3.50;81.30
76996;DHT22;65929;49.062;10.338;2024-02-26T00:39:43;3.50;81.30
76996;DHT22;65929;49.062;10.338;2024-02-26T00:40:46;3.60;81.30
76996;DHT22;65929;49.062;10.338;2024-02-26T00:41:47;3.50;81.20
76996;DHT22;65929;49.062;10.338;2024-02-26T00:42:48;3.60;81.20
76996;DHT22;65929;49.062;10.338;2024-02-26T00:43:49;3.60;81.20
76996;DHT22;65929;49.062;10.338;2024-02-26T00:44:50;3.60;81.20
76996;DHT22;65929;49.062;10.338;2024-02-26T00:45:51;3.60;81.20
76996;DHT22;65929;49.062;10.338;2024-02-26T00:46:53;3.60;81.20
76996;DHT22;65929;49.062;10.338;2024-02-26T00:47:54;3.60;81.20
76996;DHT22;65929;49.062;10.338;2024-02-26T00:48:54;3.60;81.30
76996;DHT22;65929;49.062;10.338;2024-02-26T00:49:55;3.60;81.30
76996;DHT22;65929;49.062;10.338;2024-02-26T00:50:56;3.60;81.30
76996;DHT22;65929;49.062;10.338;2024-02-26T00:51:57;3.60;81.50
76996;DHT22;65929;49.062;10.338;2024-02-26T00:52:58;3.60;81.40
76996;DHT22;65929;49.062;10.338;2024-02-26T00:53:59;3.60;81.40
76996;DHT22;65929;49.062;10.338;2024-02-26T00:55:00;3.60;81.50
76996;DHT22;65929;49.062;10.338;2024-02-26T00:56:02;3.60;81.60
76996;DHT22;65929;49.062;10.338;2024-02-26T00:57:03;3.60;81.50
76996;DHT22;65929;49.062;10.338;2024-02-26T00:58:04;3.60;81.50
76996;DHT22;65929;49.062;10.338;2024-02-26T01:02:59;3.60;81.80
76996;DHT22;65929;49.062;10.338;2024-02-26T01:04:00;3.60;81.70
76996;DHT22;65929;49.062;10.338;2024-02-26T01:05:01;3.60;81.60
76996;DHT22;65929;49.062;10.338;2024-02-26T01:06:03;3.60;81.80
76996;DHT22;65929;49.062;10.338;2024-02-26T01:07:04;3.60;81.70
76996;DHT22;65929;49.062;10.338;2024-02-26T01:08:05;3.60;81.60
76996;DHT22;65929;49.062;10.338;2024-02-26T01:09:06;3.60;81.60
76996;DHT22;65929;49.062;10.338;2024-02-26T01:10:07;3.60;81.50
76996;DHT22;65929;49.062;10.338;2024-02-26T01:11:10;3.60;81.50
76996;DHT22;65929;49.062;10.338;2024-02-26T01:12:11;3.70;81.40
76996;DHT22;65929;49.062;10.338;2024-02-26T01:13:12;3.70;81.50
76996;DHT22;65929;49.062;10.338;2024-02-26T01:14:13;3.70;81.50
76996;DHT22;65929;49.062;10.338;2024-02-26T01:15:13;3.70;81.40
76996;DHT22;65929;49.062;10.338;2024-02-26T01:16:14;3.70;81.50
76996;DHT22;65929;49.062;10.338;2024-02-26T01:17:15;3.70;81.40
76996;DHT22;65929;49.062;10.338;2024-02-26T01:18:16;3.70;81.40
76996;DHT22;65929;49.062;10.338;2024-02-26T01:19:17;3.70;81.40
76996;DHT22;65929;49.062;10.338;2024-02-26T01:20:18;3.70;81.40
76996;DHT22;65929;49.062;10.338;2024-02-26T01:21:19;3.70;81.40
76996;DHT22;65929;49.062;10.338;2024-02-26T01:22:20;3.70;81.40
76996;DHT22;65929;49.062;10.338;2024-02-26T01:23:21;3.70;81.30
76996;DHT22;65929;49.062;10.338;2024-02-26T01:24:22;3.70;81.40
76996;DHT22;65929;49.062;10.338;2024-02-26T01:25:23;3.70;81.40
76996;DHT22;65929;49.062;10.338;2024-02-26T01:26:25;3.70;81.40
76996;DHT22;65929;49.062;10.338;2024-02-26T01:27:26;3.70;81.30
76996;DHT22;65929;49.062;10.338;2024-02-26T01:28:27;3.70;81.30
76996;DHT22;65929;49.062;10.338;2024-02-26T01:29:28;3.70;81.40
76996;DHT22;65929;49.062;10.338;2024-02-26T01:30:29;3.70;81.40
76996;DHT22;65929;49.062;10.338;2024-02-26T01:31:30;3.70;81.40
76996;DHT22;65929;49.062;10.338;2024-02-26T01:32:31;3.70;81.40
76996;DHT22;65929;49.062;10.338;2024-02-26T01:33:32;3.70;81.40
76996;DHT22;65929;49.062;10.338;2024-02-26T01:34:33;3.70;81.40
76996;DHT22;65929;49.062;10.338;2024-02-26T01:35:34;3.70;81.20
76996;DHT22;65929;49.062;10.338;2024-02-26T01:36:35;3.70;81.20
76996;DHT22;65929;49.062;10.338;2024-02-26T01:37:36;3.70;81.10
76996;DHT22;65929;49.062;10.338;2024-02-26T01:38:37;3.80;80.80
76996;DHT22;65929;49.062;10.338;2024-02-26T01:39:38;3.80;80.70
76996;DHT22;65929;49.062;10.338;2024-02-26T01:40:40;3.70;80.80
76996;DHT22;65929;49.062;10.338;2024-02-26T01:41:43;3.80;80.90
76996;DHT22;65929;49.062;10.338;2024-02-26T01:42:44;3.70;80.90
76996;DHT22;65929;49.062;10.338;2024-02-26T01:43:45;3.70;80.90
76996;DHT22;65929;49.062;10.338;2024-02-26T01:44:46;3.70;81.00
76996;DHT22;65929;49.062;10.338;2024-02-26T01:45:47;3.70;81.10
76996;DHT22;65929;49.062;10.338;2024-02-26T01:46:48;3.70;81.20
76996;DHT22;65929;49.062;10.338;2024-02-26T01:47:51;3.70;81.40
76996;DHT22;65929;49.062;10.338;2024-02-26T01:48:52;3.70;81.40
76996;DHT22;65929;49.062;10.338;2024-02-26T01:49:53;3.60;81.50
76996;DHT22;65929;49.062;10.338;2024-02-26T01:50:54;3.60;81.50
76996;DHT22;65929;49.062;10.338;2024-02-26T01:51:55;3.60;81.50
76996;DHT22;65929;49.062;10.338;2024-02-26T01:52:57;3.60;81.50
76996;DHT22;65929;49.062;10.338;2024-02-26T01:53:59;3.60;81.70
76996;DHT22;65929;49.062;10.338;2024-02-26T01:55:01;3.60;81.80
76996;DHT22;65929;49.062;10.338;2024-02-26T01:56:04;3.60;81.80
76996;DHT22;65929;49.062;10.338;2024-02-26T01:57:06;3.60;81.80
76996;DHT22;65929;49.062;10.338;2024-02-26T01:58:09;3.50;81.90
76996;DHT22;65929;49.062;10.338;2024-02-26T01:59:10;3.60;81.90
76996;DHT22;65929;49.062;10.338;2024-02-26T02:00:12;3.50;82.00
76996;DHT22;65929;49.062;10.338;2024-02-26T02:01:13;3.50;81.80
76996;DHT22;65929;49.062;10.338;2024-02-26T02:02:16;3.50;81.80
76996;DHT22;65929;49.062;10.338;2024-02-26T02:03:17;3.60;81.80
76996;DHT22;65929;49.062;10.338;2024-02-26T02:04:18;3.50;82.00
76996;DHT22;65929;49.062;10.338;2024-02-26T02:05:20;3.50;82.00
76996;DHT22;65929;49.062;10.338;2024-02-26T02:06:21;3.50;81.90
76996;DHT22;65929;49.062;10.338;2024-02-26T02:07:23;3.50;82.00
76996;DHT22;65929;49.062;10.338;2024-02-26T02:08:25;3.50;82.00
76996;DHT22;65929;49.062;10.338;2024-02-26T02:09:27;3.50;82.20
76996;DHT22;65929;49.062;10.338;2024-02-26T02:10:28;3.50;82.20
76996;DHT22;65929;49.062;10.338;2024-02-26T02:11:29;3.50;82.10
76996;DHT22;65929;49.062;10.338;2024-02-26T02:12:32;3.50;82.20
76996;DHT22;65929;49.062;10.338;2024-02-26T02:13:34;3.50;82.10
76996;DHT22;65929;49.062;10.338;2024-02-26T02:14:35;3.50;82.30
76996;DHT22;65929;49.062;10.338;2024-02-26T02:15:36;3.50;82.40
76996;DHT22;65929;49.062;10.338;2024-02-26T02:16:37;3.50;82.50
76996;DHT22;65929;49.062;10.338;2024-02-26T02:17:38;3.50;82.50
76996;DHT22;65929;49.062;10.338;2024-02-26T02:18:39;3.50;82.60
76996;DHT22;65929;49.062;10.338;2024-02-26T02:19:40;3.50;82.60
76996;DHT22;65929;49.062;10.338;2024-02-26T02:20:42;3.50;82.70
76996;DHT22;65929;49.062;10.338;2024-02-26T02:21:43;3.50;82.70
76996;DHT22;65929;49.062;10.338;2024-02-26T02:22:45;3.50;82.80
76996;DHT22;65929;49.062;10.338;2024-02-26T02:23:45;3.40;82.80
76996;DHT22;65929;49.062;10.338;2024-02-26T02:24:48;3.40;82.90
76996;DHT22;65929;49.062;10.338;2024-02-26T02:25:49;3.50;82.70
76996;DHT22;65929;49.062;10.338;2024-02-26T02:26:50;3.40;82.80
76996;DHT22;65929;49.062;10.338;2024-02-26T02:27:52;3.40;82.80
76996;DHT22;65929;49.062;10.338;2024-02-26T02:28:54;3.40;82.80
76996;DHT22;65929;49.062;10.338;2024-02-26T02:29:55;3.40;82.80
76996;DHT22;65929;49.062;10.338;2024-02-26T02:30:56;3.40;82.90
76996;DHT22;65929;49.062;10.338;2024-02-26T02:31:57;3.50;82.90
76996;DHT22;65929;49.062;10.338;2024-02-26T02:32:59;3.40;82.90
76996;DHT22;65929;49.062;10.338;2024-02-26T02:34:00;3.40;82.80
76996;DHT22;65929;49.062;10.338;2024-02-26T02:35:02;3.40;82.80
76996;DHT22;65929;49.062;10.338;2024-02-26T02:36:04;3.40;82.80
76996;DHT22;65929;49.062;10.338;2024-02-26T02:37:09;3.50;82.90
76996;DHT22;65929;49.062;10.338;2024-02-26T02:38:10;3.50;82.70
76996;DHT22;65929;49.062;10.338;2024-02-26T02:39:11;3.50;82.60
76996;DHT22;65929;49.062;10.338;2024-02-26T02:40:12;3.50;82.70
76996;DHT22;65929;49.062;10.338;2024-02-26T02:41:13;3.50;82.60
76996;DHT22;65929;49.062;10.338;2024-02-26T02:42:14;3.50;82.60
76996;DHT22;65929;49.062;10.338;2024-02-26T02:43:15;3.50;82.60
76996;DHT22;65929;49.062;10.338;2024-02-26T02:44:16;3.50;82.50
76996;DHT22;65929;49.062;10.338;2024-02-26T02:45:17;3.50;82.40
76996;DHT22;65929;49.062;10.338;2024-02-26T02:46:18;3.50;82.40
76996;DHT22;65929;49.062;10.338;2024-02-26T02:47:19;3.50;82.40
76996;DHT22;65929;49.062;10.338;2024-02-26T02:48:20;3.50;82.30
76996;DHT22;65929;49.062;10.338;2024-02-26T02:49:21;3.50;82.40
76996;DHT22;65929;49.062;10.338;2024-02-26T02:50:24;3.50;82.50
76996;DHT22;65929;49.062;10.338;2024-02-26T02:51:26;3.50;82.60
76996;DHT22;65929;49.062;10.338;2024-02-26T02:52:27;3.50;82.60
76996;DHT22;65929;49.062;10.338;2024-02-26T02:53:28;3.50;82.60
76996;DHT22;65929;49.062;10.338;2024-02-26T02:54:29;3.50;82.70
76996;DHT22;65929;49.062;10.338;2024-02-26T02:55:30;3.40;82.80
76996;DHT22;65929;49.062;10.338;2024-02-26T02:56:31;3.40;82.80
76996;DHT22;65929;49.062;10.338;2024-02-26T02:57:32;3.40;82.80
76996;DHT22;65929;49.062;10.338;2024-02-26T02:58:33;3.40;82.90
76996;DHT22;65929;49.062;10.338;2024-02-26T02:59:34;3.40;82.80
76996;DHT22;65929;49.062;10.338;2024-02-26T03:00:35;3.50;82.60
76996;DHT22;65929;49.062;10.338;2024-02-26T03:01:36;3.50;82.50
76996;DHT22;65929;49.062;10.338;2024-02-26T03:02:37;3.50;82.40
76996;DHT22;65929;49.062;10.338;2024-02-26T03:03:38;3.50;82.10
76996;DHT22;65929;49.062;10.338;2024-02-26T03:04:39;3.50;82.00
76996;DHT22;65929;49.062;10.338;2024-02-26T03:05:40;3.50;82.00
76996;DHT22;65929;49.062;10.338;2024-02-26T03:06:42;3.50;81.80
76996;DHT22;65929;49.062;10.338;2024-02-26T03:07:43;3.50;81.60
76996;DHT22;65929;49.062;10.338;2024-02-26T03:08:44;3.50;81.70
76996;DHT22;65929;49.062;10.338;2024-02-26T03:09:45;3.50;81.60
76996;DHT22;65929;49.062;10.338;2024-02-26T03:10:46;3.50;81.70
76996;DHT22;65929;49.062;10.338;2024-02-26T03:11:47;3.50;81.60
76996;DHT22;65929;49.062;10.338;2024-02-26T03:12:50;3.50;81.80
76996;DHT22;65929;49.062;10.338;2024-02-26T03:13:51;3.50;81.80
76996;DHT22;65929;49.062;10.338;2024-02-26T03:14:52;3.50;81.80
76996;DHT22;65929;49.062;10.338;2024-02-26T03:15:54;3.50;81.80
76996;DHT22;65929;49.062;10.338;2024-02-26T03:16:55;3.60;81.80
76996;DHT22;65929;49.062;10.338;2024-02-26T03:17:56;3.50;81.80
76996;DHT22;65929;49.062;10.338;2024-02-26T03:18:57;3.50;81.90
76996;DHT22;65929;49.062;10.338;2024-02-26T03:19:58;3.50;81.90
76996;DHT22;65929;49.062;10.338;2024-02-26T03:20:59;3.50;81.90
76996;DHT22;65929;49.062;10.338;2024-02-26T03:22:01;3.50;82.10
76996;DHT22;65929;49.062;10.338;2024-02-26T03:23:03;3.50;82.00
76996;DHT22;65929;49.062;10.338;2024-02-26T03:24:05;3.50;82.00
76996;DHT22;65929;49.062;10.338;2024-02-26T03:25:06;3.50;82.10
76996;DHT22;65929;49.062;10.338;2024-02-26T03:26:07;3.40;82.20
76996;DHT22;65929;49.062;10.338;2024-02-26T03:27:09;3.40;82.30
76996;DHT22;65929;49.062;10.338;2024-02-26T03:28:10;3.40;82.60
76996;DHT22;65929;49.062;10.338;2024-02-26T03:29:11;3.40;82.80
76996;DHT22;65929;49.062;10.338;2024-02-26T03:30:12;3.40;82.70
76996;DHT22;65929;49.062;10.338;2024-02-26T03:31:13;3.40;82.70
76996;DHT22;65929;49.062;10.338;2024-02-26T03:32:14;3.40;82.80
76996;DHT22;65929;49.062;10.338;2024-02-26T03:33:15;3.30;83.00
76996;DHT22;65929;49.062;10.338;2024-02-26T03:34:16;3.30;82.90
76996;DHT22;65929;49.062;10.338;2024-02-26T03:35:18;3.30;83.00
76996;DHT22;65929;49.062;10.338;2024-02-26T03:36:18;3.30;83.00
76996;DHT22;65929;49.062;10.338;2024-02-26T03:37:21;3.30;83.00
76996;DHT22;65929;49.062;10.338;2024-02-26T03:38:22;3.30;82.90
76996;DHT22;65929;49.062;10.338;2024-02-26T03:39:23;3.30;83.00
76996;DHT22;65929;49.062;10.338;2024-02-26T03:40:24;3.30;83.00
76996;DHT22;65929;49.062;10.338;2024-02-26T03:41:25;3.30;83.10
76996;DHT22;65929;49.062;10.338;2024-02-26T03:42:26;3.30;83.00
76996;DHT22;65929;49.062;10.338;2024-02-26T03:43:26;3.30;82.90
76996;DHT22;65929;49.062;10.338;2024-02-26T03:44:27;3.30;82.90
76996;DHT22;65929;49.062;10.338;2024-02-26T03:45:28;3.30;82.80
76996;DHT22;65929;49.062;10.338;2024-02-26T03:46:29;3.40;82.70
76996;DHT22;65929;49.062;10.338;2024-02-26T03:47:30;3.40;82.60
76996;DHT22;65929;49.062;10.338;2024-02-26T03:48:31;3.40;82.50
76996;DHT22;65929;49.062;10.338;2024-02-26T03:49:32;3.50;82.50
76996;DHT22;65929;49.062;10.338;2024-02-26T03:50:33;3.50;82.50
76996;DHT22;65929;49.062;10.338;2024-02-26T03:51:35;3.50;82.50
76996;DHT22;65929;49.062;10.338;2024-02-26T03:52:37;3.50;82.40
76996;DHT22;65929;49.062;10.338;2024-02-26T03:53:38;3.50;82.30
76996;DHT22;65929;49.062;10.338;2024-02-26T03:54:39;3.50;82.40
76996;DHT22;65929;49.062;10.338;2024-02-26T03:55:40;3.50;82.50
76996;DHT22;65929;49.062;10.338;2024-02-26T03:56:42;3.50;82.70
76996;DHT22;65929;49.062;10.338;2024-02-26T03:57:43;3.50;82.70
76996;DHT22;65929;49.062;10.338;2024-02-26T03:58:44;3.50;82.70
76996;DHT22;65929;49.062;10.338;2024-02-26T03:59:45;3.50;82.90
76996;DHT22;65929;49.062;10.338;2024-02-26T04:00:46;3.50;82.90
76996;DHT22;65929;49.062;10.338;2024-02-26T04:01:48;3.50;82.90
76996;DHT22;65929;49.062;10.338;2024-02-26T04:02:49;3.50;82.90
76996;DHT22;65929;49.062;10.338;2024-02-26T04:03:50;3.50;83.00
76996;DHT22;65929;49.062;10.338;2024-02-26T04:04:51;3.50;83.00
76996;DHT22;65929;49.062;10.338;2024-02-26T04:05:52;3.50;83.00
76996;DHT22;65929;49.062;10.338;2024-02-26T04:06:53;3.50;82.90
76996;DHT22;65929;49.062;10.338;2024-02-26T04:07:55;3.50;82.90
76996;DHT22;65929;49.062;10.338;2024-02-26T04:08:56;3.50;82.70
76996;DHT22;65929;49.062;10.338;2024-02-26T04:09:57;3.50;82.70
76996;DHT22;65929;49.062;10.338;2024-02-26T04:10:58;3.50;82.80
76996;DHT22;65929;49.062;10.338;2024-02-26T04:11:59;3.50;82.70
76996;DHT22;65929;49.062;10.338;2024-02-26T04:13:00;3.50;82.70
76996;DHT22;65929;49.062;10.338;2024-02-26T04:14:01;3.50;82.70
76996;DHT22;65929;49.062;10.338;2024-02-26T04:15:04;3.50;83.00
76996;DHT22;65929;49.062;10.338;2024-02-26T04:16:06;3.50;83.30
76996;DHT22;65929;49.062;10.338;2024-02-26T04:17:07;3.50;83.60
76996;DHT22;65929;49.062;10.338;2024-02-26T04:18:08;3.50;83.70
76996;DHT22;65929;49.062;10.338;2024-02-26T04:19:09;3.50;83.60
76996;DHT22;65929;49.062;10.338;2024-02-26T04:20:13;3.50;83.20
76996;DHT22;65929;49.062;10.338;2024-02-26T04:21:15;3.50;83.00
76996;DHT22;65929;49.062;10.338;2024-02-26T04:22:16;3.50;82.90
76996;DHT22;65929;49.062;10.338;2024-02-26T04:23:18;3.50;82.60
76996;DHT22;65929;49.062;10.338;2024-02-26T04:24:19;3.50;82.40
76996;DHT22;65929;49.062;10.338;2024-02-26T04:25:20;3.50;82.30
76996;DHT22;65929;49.062;10.338;2024-02-26T04:26:21;3.50;82.70
76996;DHT22;65929;49.062;10.338;2024-02-26T04:27:22;3.50;82.60
76996;DHT22;65929;49.062;10.338;2024-02-26T04:28:23;3.50;82.70
76996;DHT22;65929;49.062;10.338;2024-02-26T04:29:26;3.50;83.00
76996;DHT22;65929;49.062;10.338;2024-02-26T04:30:27;3.50;83.50
76996;DHT22;65929;49.062;10.338;2024-02-26T04:31:28;3.50;83.70
76996;DHT22;65929;49.062;10.338;2024-02-26T04:32:31;3.50;83.70
76996;DHT22;65929;49.062;10.338;2024-02-26T04:33:34;3.50;83.60
76996;DHT22;65929;49.062;10.338;2024-02-26T04:34:35;3.50;83.70
76996;DHT22;65929;49.062;10.338;2024-02-26T04:35:36;3.50;83.70
76996;DHT22;65929;49.062;10.338;2024-02-26T04:36:37;3.50;83.50
76996;DHT22;65929;49.062;10.338;2024-02-26T04:37:38;3.50;83.30
76996;DHT22;65929;49.062;10.338;2024-02-26T04:38:40;3.50;83.10
76996;DHT22;65929;49.062;10.338;2024-02-26T04:39:41;3.50;83.10
76996;DHT22;65929;49.062;10.338;2024-02-26T04:40:42;3.50;82.90
76996;DHT22;65929;49.062;10.338;2024-02-26T04:41:43;3.50;82.80
76996;DHT22;65929;49.062;10.338;2024-02-26T04:42:44;3.50;82.80
76996;DHT22;65929;49.062;10.338;2024-02-26T04:43:45;3.50;82.90
76996;DHT22;65929;49.062;10.338;2024-02-26T04:44:46;3.50;82.90
76996;DHT22;65929;49.062;10.338;2024-02-26T04:45:46;3.50;82.80
76996;DHT22;65929;49.062;10.338;2024-02-26T04:46:48;3.50;82.70
76996;DHT22;65929;49.062;10.338;2024-02-26T04:47:49;3.50;82.70
76996;DHT22;65929;49.062;10.338;2024-02-26T04:48:50;3.50;82.70
76996;DHT22;65929;49.062;10.338;2024-02-26T04:49:51;3.50;82.70
76996;DHT22;65929;49.062;10.338;2024-02-26T04:50:52;3.50;82.50
76996;DHT22;65929;49.062;10.338;2024-02-26T04:51:53;3.50;82.60
76996;DHT22;65929;49.062;10.338;2024-02-26T04:52:54;3.50;82.50
76996;DHT22;65929;49.062;10.338;2024-02-26T04:53:57;3.50;82.70
76996;DHT22;65929;49.062;10.338;2024-02-26T04:54:57;3.50;82.80
76996;DHT22;65929;49.062;10.338;2024-02-26T04:56:00;3.50;82.90
76996;DHT22;65929;49.062;10.338;2024-02-26T04:57:01;3.50;82.90
76996;DHT22;65929;49.062;10.338;2024-02-26T04:58:02;3.50;83.00
76996;DHT22;65929;49.062;10.338;2024-02-26T04:59:03;3.50;83.00
76996;DHT22;65929;49.062;10.338;2024-02-26T05:00:05;3.50;83.00
76996;DHT22;65929;49.062;10.338;2024-02-26T05:01:06;3.50;82.90
76996;DHT22;65929;49.062;10.338;2024-02-26T05:02:07;3.50;83.00
76996;DHT22;65929;49.062;10.338;2024-02-26T05:03:08;3.50;83.00
76996;DHT22;65929;49.062;10.338;2024-02-26T05:04:13;3.50;82.90
76996;DHT22;65929;49.062;10.338;2024-02-26T05:05:14;3.50;82.90
76996;DHT22;65929;49.062;10.338;2024-02-26T05:06:15;3.50;82.90
76996;DHT22;65929;49.062;10.338;2024-02-26T05:07:16;3.50;83.00
76996;DHT22;65929;49.062;10.338;2024-02-26T05:08:20;3.50;83.10
76996;DHT22;65929;49.062;10.338;2024-02-26T05:09:22;3.50;83.00
76996;DHT22;65929;49.062;10.338;2024-02-26T05:10:23;3.40;82.90
76996;DHT22;65929;49.062;10.338;2024-02-26T05:11:24;3.40;83.00
76996;DHT22;65929;49.062;10.338;2024-02-26T05:12:25;3.40;82.90
76996;DHT22;65929;49.062;10.338;2024-02-26T05:13:26;3.40;82.90
76996;DHT22;65929;49.062;10.338;2024-02-26T05:14:26;3.40;83.00
76996;DHT22;65929;49.062;10.338;2024-02-26T05:15:27;3.30;82.90
76996;DHT22;65929;49.062;10.338;2024-02-26T05:16:28;3.30;83.00
76996;DHT22;65929;49.062;10.338;2024-02-26T05:17:31;3.30;83.10
76996;DHT22;65929;49.062;10.338;2024-02-26T05:18:32;3.30;83.20
76996;DHT22;65929;49.062;10.338;2024-02-26T05:19:33;3.30;83.20
76996;DHT22;65929;49.062;10.338;2024-02-26T05:20:34;3.30;83.30
76996;DHT22;65929;49.062;10.338;2024-02-26T05:21:36;3.20;83.30
76996;DHT22;65929;49.062;10.338;2024-02-26T05:22:37;3.20;83.40
76996;DHT22;65929;49.062;10.338;2024-02-26T05:23:38;3.10;83.60
76996;DHT22;65929;49.062;10.338;2024-02-26T05:24:40;3.10;83.80
76996;DHT22;65929;49.062;10.338;2024-02-26T05:25:41;3.10;83.80
76996;DHT22;65929;49.062;10.338;2024-02-26T05:26:42;3.10;83.80
76996;DHT22;65929;49.062;10.338;2024-02-26T05:27:44;3.10;83.90
76996;DHT22;65929;49.062;10.338;2024-02-26T05:28:45;3.10;84.00
76996;DHT22;65929;49.062;10.338;2024-02-26T05:29:46;3.10;84.10
76996;DHT22;65929;49.062;10.338;2024-02-26T05:30:47;3.10;84.10
76996;DHT22;65929;49.062;10.338;2024-02-26T05:31:47;3.10;84.30
76996;DHT22;65929;49.062;10.338;2024-02-26T05:32:48;3.00;84.20
76996;DHT22;65929;49.062;10.338;2024-02-26T05:33:49;3.00;84.20
76996;DHT22;65929;49.062;10.338;2024-02-26T05:34:50;3.00;84.40
76996;DHT22;65929;49.062;10.338;2024-02-26T05:35:51;3.00;84.40
76996;DHT22;65929;49.062;10.338;2024-02-26T05:36:52;3.00;84.30
76996;DHT22;65929;49.062;10.338;2024-02-26T05:37:53;3.00;84.20
76996;DHT22;65929;49.062;10.338;2024-02-26T05:38:54;3.00;84.20
76996;DHT22;65929;49.062;10.338;2024-02-26T05:39:57;3.00;84.20
76996;DHT22;65929;49.062;10.338;2024-02-26T05:40:58;3.00;84.20
76996;DHT22;65929;49.062;10.338;2024-02-26T05:41:59;3.00;84.10
76996;DHT22;65929;49.062;10.338;2024-02-26T05:43:00;3.10;83.90
76996;DHT22;65929;49.062;10.338;2024-02-26T05:44:01;3.10;84.00
76996;DHT22;65929;49.062;10.338;2024-02-26T05:45:03;3.10;84.00
76996;DHT22;65929;49.062;10.338;2024-02-26T05:46:07;3.10;84.00
76996;DHT22;65929;49.062;10.338;2024-02-26T05:47:08;3.10;84.00
76996;DHT22;65929;49.062;10.338;2024-02-26T05:48:09;3.10;84.10
76996;DHT22;65929;49.062;10.338;2024-02-26T05:49:10;3.10;84.10
76996;DHT22;65929;49.062;10.338;2024-02-26T05:50:13;3.10;84.20
76996;DHT22;65929;49.062;10.338;2024-02-26T05:51:15;3.10;84.10
76996;DHT22;65929;49.062;10.338;2024-02-26T05:52:16;3.10;84.10
76996;DHT22;65929;49.062;10.338;2024-02-26T05:53:17;3.10;84.00
76996;DHT22;65929;49.062;10.338;2024-02-26T05:54:18;3.10;84.00
76996;DHT22;65929;49.062;10.338;2024-02-26T05:55:20;3.10;83.70
76996;DHT22;65929;49.062;10.338;2024-02-26T05:56:21;3.20;83.50
76996;DHT22;65929;49.062;10.338;2024-02-26T05:57:22;3.20;83.60
76996;DHT22;65929;49.062;10.338;2024-02-26T05:58:23;3.30;83.90
76996;DHT22;65929;49.062;10.338;2024-02-26T05:59:24;3.30;83.70
76996;DHT22;65929;49.062;10.338;2024-02-26T06:00:25;3.30;83.90
76996;DHT22;65929;49.062;10.338;2024-02-26T06:01:26;3.30;83.70
76996;DHT22;65929;49.062;10.338;2024-02-26T06:02:27;3.30;83.60
76996;DHT22;65929;49.062;10.338;2024-02-26T06:03:28;3.30;83.40
76996;DHT22;65929;49.062;10.338;2024-02-26T06:04:29;3.30;83.40
76996;DHT22;65929;49.062;10.338;2024-02-26T06:05:30;3.30;83.40
76996;DHT22;65929;49.062;10.338;2024-02-26T06:06:31;3.30;83.60
76996;DHT22;65929;49.062;10.338;2024-02-26T06:07:32;3.30;83.50
76996;DHT22;65929;49.062;10.338;2024-02-26T06:08:33;3.30;83.40
76996;DHT22;65929;49.062;10.338;2024-02-26T06:09:34;3.30;83.40
76996;DHT22;65929;49.062;10.338;2024-02-26T06:10:37;3.30;83.30
76996;DHT22;65929;49.062;10.338;2024-02-26T06:11:39;3.30;83.50
76996;DHT22;65929;49.062;10.338;2024-02-26T06:12:40;3.30;83.60
76996;DHT22;65929;49.062;10.338;2024-02-26T06:13:41;3.30;83.50
76996;DHT22;65929;49.062;10.338;2024-02-26T06:14:43;3.30;83.40
76996;DHT22;65929;49.062;10.338;2024-02-26T06:15:44;3.30;83.50
76996;DHT22;65929;49.062;10.338;2024-02-26T06:16:45;3.30;83.40
76996;DHT22;65929;49.062;10.338;2024-02-26T06:17:46;3.30;84.00
76996;DHT22;65929;49.062;10.338;2024-02-26T06:18:47;3.30;84.20
76996;DHT22;65929;49.062;10.338;2024-02-26T06:19:48;3.30;84.20
76996;DHT22;65929;49.062;10.338;2024-02-26T06:20:49;3.30;84.20
76996;DHT22;65929;49.062;10.338;2024-02-26T06:21:49;3.30;84.20
76996;DHT22;65929;49.062;10.338;2024-02-26T06:22:51;3.30;84.20
76996;DHT22;65929;49.062;10.338;2024-02-26T06:23:53;3.30;84.30
76996;DHT22;65929;49.062;10.338;2024-02-26T06:24:54;3.40;84.40
76996;DHT22;65929;49.062;10.338;2024-02-26T06:25:56;3.40;84.30
76996;DHT22;65929;49.062;10.338;2024-02-26T06:26:57;3.40;84.30
76996;DHT22;65929;49.062;10.338;2024-02-26T06:27:58;3.40;84.30
76996;DHT22;65929;49.062;10.338;2024-02-26T06:28:58;3.50;84.30
76996;DHT22;65929;49.062;10.338;2024-02-26T06:29:59;3.50;84.30
76996;DHT22;65929;49.062;10.338;2024-02-26T06:31:00;3.50;84.30